Terminal Aerodrome Forecast
Issued by NWS

Home | Current Version | Previous Version | Text Only | Print | Product List | Glossary On
Versions: 1 2 3 4 5 6 7 8 9 10 11 12 13 14 15 16 17 18
000
FTUS41 KBUF 241138
TAFIAG
TAF
KIAG 241138Z 2412/2512 22008KT P6SM SKC
     FM241700 23012G20KT P6SM SCT200
     FM242000 22014G24KT P6SM BKN110
     FM242300 22010KT P6SM BKN110
     FM250300 19005KT P6SM OVC090=

USA.gov is the U.S. government's official web portal to all federal, state and local government web resources and services.